createdAt,value
2018-05-17T00:01:29.923Z,99688.81
2018-05-17T00:03:57.550Z,99694.08
2018-05-17T00:06:25.133Z,99691.94
2018-05-17T00:08:52.774Z,99686.80
2018-05-17T00:11:20.392Z,99674.29
2018-05-17T00:13:47.981Z,99670.16
2018-05-17T00:16:15.560Z,99675.41
2018-05-17T00:18:43.175Z,99672.91
2018-05-17T00:21:10.760Z,99669.59
2018-05-17T00:23:38.349Z,99674.95
2018-05-17T00:26:05.973Z,99672.98
2018-05-17T00:28:33.563Z,99662.52
2018-05-17T00:31:01.142Z,99660.94
2018-05-17T00:33:28.744Z,99666.07
2018-05-17T00:35:56.344Z,99662.06
2018-05-17T00:38:24.595Z,99657.02
2018-05-17T00:40:52.205Z,99659.72
2018-05-17T00:43:19.897Z,99669.37
2018-05-17T00:45:47.493Z,99668.14
2018-05-17T00:48:16.876Z,99664.20
2018-05-17T00:50:44.450Z,99660.33
2018-05-17T00:53:23.655Z,99654.23
2018-05-17T00:55:51.509Z,99659.10
2018-05-17T00:58:19.955Z,99653.02
2018-05-17T01:00:47.569Z,99641.59
2018-05-17T01:03:15.161Z,99648.17
2018-05-17T01:05:42.749Z,99662.41
2018-05-17T01:08:11.359Z,99665.72
2018-05-17T01:10:38.978Z,99663.56
2018-05-17T01:13:06.573Z,99659.17
2018-05-17T01:15:34.212Z,99656.20
2018-05-17T01:18:01.803Z,99656.05
2018-05-17T01:20:29.378Z,99654.74
2018-05-17T01:22:57.055Z,99643.09
2018-05-17T01:25:24.640Z,99639.30
2018-05-17T01:27:52.234Z,99640.24
2018-05-17T01:30:19.855Z,99638.87
2018-05-17T01:32:47.438Z,99638.66
2018-05-17T01:35:15.020Z,99646.83
2018-05-17T01:37:54.400Z,99647.48
2018-05-17T01:40:22.024Z,99634.12
2018-05-17T01:42:49.763Z,99633.81
2018-05-17T01:45:17.370Z,99638.87
2018-05-17T01:47:44.952Z,99645.99
2018-05-17T01:50:13.283Z,99634.83
2018-05-17T01:52:40.878Z,99632.48
2018-05-17T01:55:08.493Z,99624.45
2018-05-17T01:57:36.872Z,99625.27
2018-05-17T02:00:04.593Z,99618.37
2018-05-17T02:02:32.178Z,99626.16
2018-05-17T02:04:59.768Z,99623.18
2018-05-17T02:07:27.404Z,99620.08
2018-05-17T02:09:54.984Z,99616.56
2018-05-17T02:12:22.570Z,99620.61
2018-05-17T02:14:50.197Z,99620.41
2018-05-17T02:17:17.770Z,99609.29
2018-05-17T02:19:45.350Z,99606.06
2018-05-17T02:22:12.965Z,99613.50
2018-05-17T02:24:40.573Z,99610.11
2018-05-17T02:27:08.155Z,99606.98
2018-05-17T02:29:35.781Z,99612.97
2018-05-17T02:32:03.367Z,99616.61
2018-05-17T02:37:03.735Z,99616.92
2018-05-17T02:39:31.324Z,99612.31
2018-05-17T02:41:58.909Z,99599.88
2018-05-17T02:44:26.538Z,99603.66
2018-05-17T02:46:54.128Z,99603.27
2018-05-17T02:49:21.711Z,99605.75
2018-05-17T02:51:49.330Z,99617.16
2018-05-17T02:54:16.916Z,99616.85
2018-05-17T02:56:44.507Z,99620.77
2018-05-17T02:59:12.136Z,99608.36
2018-05-17T03:01:39.725Z,99630.45
2018-05-17T03:04:07.309Z,99633.16
2018-05-17T03:06:34.941Z,99640.72
2018-05-17T03:09:02.522Z,99644.35
2018-05-17T03:11:30.108Z,99646.92
2018-05-17T03:13:57.720Z,99638.45
2018-05-17T03:16:25.322Z,99630.81
2018-05-17T03:18:52.891Z,99626.06
2018-05-17T03:21:20.511Z,99619.21
2018-05-17T03:23:48.088Z,99618.75
2018-05-17T03:26:15.673Z,99610.45
2018-05-17T03:28:43.307Z,99617.08
2018-05-17T03:31:10.884Z,99614.13
2018-05-17T03:33:38.461Z,99618.20
2018-05-17T03:36:06.071Z,99619.47
2018-05-17T03:38:33.638Z,99618.02
2018-05-17T03:41:01.201Z,99620.98
2018-05-17T03:43:28.805Z,99631.47
2018-05-17T03:45:56.387Z,99636.46
2018-05-17T03:48:24.007Z,99630.09
2018-05-17T03:50:51.620Z,99626.38
2018-05-17T03:53:19.206Z,99629.08
2018-05-17T03:55:46.780Z,99624.20
2018-05-17T03:58:14.387Z,99624.49
2018-05-17T04:00:53.613Z,99627.79
2018-05-17T04:03:32.861Z,99625.30
2018-05-17T04:06:12.151Z,99628.69
2018-05-17T04:08:39.797Z,99636.32
2018-05-17T04:11:07.367Z,99636.75
2018-05-17T04:13:34.959Z,99635.21
2018-05-17T04:16:02.581Z,99633.03
2018-05-17T04:18:30.153Z,99633.41
2018-05-17T04:20:57.737Z,99631.64
2018-05-17T04:23:25.351Z,99634.42
2018-05-17T04:25:52.938Z,99632.09
2018-05-17T04:28:20.522Z,99627.37
2018-05-17T04:30:48.150Z,99626.98
2018-05-17T04:33:15.766Z,99624.88
2018-05-17T04:35:43.348Z,99627.03
2018-05-17T04:38:10.967Z,99621.53
2018-05-17T04:40:38.543Z,99608.34
2018-05-17T04:43:06.140Z,99608.12
2018-05-17T04:45:33.754Z,99595.41
2018-05-17T04:48:01.364Z,99594.43
2018-05-17T04:50:28.952Z,99601.59
2018-05-17T04:52:56.566Z,99609.33
2018-05-17T04:55:24.137Z,99611.50
2018-05-17T04:57:51.724Z,99606.76
2018-05-17T05:00:19.330Z,99603.53
2018-05-17T05:02:46.973Z,99597.85
2018-05-17T05:05:14.535Z,99603.26
2018-05-17T05:07:42.271Z,99600.36
2018-05-17T05:10:09.857Z,99599.73
2018-05-17T05:12:37.432Z,99604.08
2018-05-17T05:15:05.166Z,99610.70
2018-05-17T05:17:32.760Z,99614.88
2018-05-17T05:20:00.337Z,99621.73
2018-05-17T05:22:27.956Z,99613.19
2018-05-17T05:24:55.536Z,99606.67
2018-05-17T05:27:23.128Z,99613.14
2018-05-17T05:29:50.743Z,99603.63
2018-05-17T05:32:18.325Z,99604.18
2018-05-17T05:34:45.900Z,99608.70
2018-05-17T05:37:13.523Z,99604.50
2018-05-17T05:39:41.103Z,99597.36
2018-05-17T05:42:08.670Z,99597.45
2018-05-17T05:44:36.283Z,99597.06
2018-05-17T05:47:03.900Z,99596.14
2018-05-17T05:49:31.544Z,99602.70
2018-05-17T05:51:59.200Z,99602.63
2018-05-17T05:54:26.820Z,99596.84
2018-05-17T05:56:54.426Z,99599.98
2018-05-17T05:59:22.086Z,99597.94
2018-05-17T06:01:49.695Z,99596.17
2018-05-17T06:04:17.277Z,99597.20
2018-05-17T06:06:44.936Z,99599.64
2018-05-17T06:09:12.523Z,99595.73
2018-05-17T06:11:40.123Z,99598.03
2018-05-17T06:14:07.735Z,99598.01
2018-05-17T06:16:35.326Z,99604.00
2018-05-17T06:19:02.912Z,99604.19
2018-05-17T06:21:30.523Z,99598.11
2018-05-17T06:23:58.110Z,99594.70
2018-05-17T06:26:25.695Z,99584.97
2018-05-17T06:28:53.316Z,99583.31
2018-05-17T06:31:20.898Z,99576.67
2018-05-17T06:33:48.506Z,99576.45
2018-05-17T06:36:16.140Z,99571.78
2018-05-17T06:38:43.717Z,99570.17
2018-05-17T06:41:11.304Z,99572.86
2018-05-17T06:43:38.934Z,99574.34
2018-05-17T06:46:06.516Z,99581.23
2018-05-17T06:48:34.088Z,99576.42
2018-05-17T06:51:01.700Z,99572.66
2018-05-17T06:53:29.284Z,99572.59
2018-05-17T06:55:56.866Z,99583.86
2018-05-17T06:58:24.511Z,99588.59
2018-05-17T07:00:52.096Z,99583.06
2018-05-17T07:03:19.694Z,99582.05
2018-05-17T07:05:47.396Z,99591.47
2018-05-17T07:08:14.989Z,99587.09
2018-05-17T07:10:42.573Z,99599.50
2018-05-17T07:13:10.180Z,99600.28
2018-05-17T07:15:37.774Z,99595.31
2018-05-17T07:18:05.508Z,99602.81
2018-05-17T07:20:33.015Z,99596.14
2018-05-17T07:23:00.599Z,99586.59
2018-05-17T07:25:28.181Z,99586.69
2018-05-17T07:27:55.814Z,99589.66
2018-05-17T07:30:23.403Z,99583.94
2018-05-17T07:32:50.981Z,99585.78
2018-05-17T07:35:18.600Z,99590.69
2018-05-17T07:37:46.204Z,99589.06
2018-05-17T07:40:13.795Z,99592.57
2018-05-17T07:42:41.413Z,99592.34
2018-05-17T07:45:08.983Z,99593.77
2018-05-17T07:47:36.563Z,99585.54
2018-05-17T07:50:04.219Z,99587.47
2018-05-17T07:52:31.789Z,99584.28
2018-05-17T07:54:59.359Z,99586.61
2018-05-17T07:57:27.077Z,99590.67
2018-05-17T07:59:54.658Z,99596.55
2018-05-17T08:02:22.234Z,99594.86
2018-05-17T08:04:49.871Z,99594.28
2018-05-17T08:07:17.505Z,99594.91
2018-05-17T08:09:45.085Z,99594.61
2018-05-17T08:12:12.704Z,99587.88
2018-05-17T08:14:40.291Z,99590.95
2018-05-17T08:17:07.866Z,99586.54
2018-05-17T08:19:35.475Z,99586.40
2018-05-17T08:22:03.216Z,99573.84
2018-05-17T08:24:30.848Z,99582.97
2018-05-17T08:26:58.473Z,99582.16
2018-05-17T08:29:26.105Z,99589.95
2018-05-17T08:31:53.691Z,99591.59
2018-05-17T08:34:21.392Z,99594.11
2018-05-17T08:36:49.081Z,99594.25
2018-05-17T08:39:16.599Z,99598.70
2018-05-17T08:41:44.228Z,99591.52
2018-05-17T08:44:11.822Z,99584.86
2018-05-17T08:46:39.415Z,99586.28
2018-05-17T08:49:07.049Z,99588.39
2018-05-17T08:51:34.645Z,99588.80
2018-05-17T08:54:02.257Z,99591.27
2018-05-17T08:56:29.907Z,99592.94
2018-05-17T08:58:57.505Z,99591.86
2018-05-17T09:01:25.098Z,99591.25
2018-05-17T09:03:52.757Z,99592.64
2018-05-17T09:06:20.345Z,99586.43
2018-05-17T09:08:47.947Z,99589.75
2018-05-17T09:11:15.573Z,99586.67
2018-05-17T09:13:43.444Z,99581.81
2018-05-17T09:16:11.006Z,99584.69
2018-05-17T09:18:38.632Z,99584.61
2018-05-17T09:21:06.222Z,99585.20
2018-05-17T09:23:33.816Z,99576.49
2018-05-17T09:26:01.436Z,99572.19
2018-05-17T09:28:29.023Z,99577.03
2018-05-17T09:30:56.608Z,99572.84
2018-05-17T09:33:24.227Z,99577.38
2018-05-17T09:35:51.819Z,99577.65
2018-05-17T09:38:19.414Z,99570.08
2018-05-17T09:40:47.015Z,99574.31
2018-05-17T09:43:14.610Z,99564.23
2018-05-17T09:45:42.368Z,99574.02
2018-05-17T09:48:09.989Z,99565.23
2018-05-17T09:50:37.591Z,99563.48
2018-05-17T09:53:05.181Z,99567.84
2018-05-17T09:55:32.813Z,99576.87
2018-05-17T09:58:00.398Z,99583.24
2018-05-17T10:00:28.024Z,99585.72
2018-05-17T10:02:55.631Z,99581.53
2018-05-17T10:05:23.210Z,99583.16
2018-05-17T10:07:50.780Z,99587.17
2018-05-17T10:10:18.402Z,99577.09
2018-05-17T10:12:45.987Z,99576.16
2018-05-17T10:15:13.577Z,99577.93
2018-05-17T10:17:41.194Z,99579.06
2018-05-17T10:20:08.982Z,99583.02
2018-05-17T10:22:36.564Z,99582.65
2018-05-17T10:25:04.214Z,99574.93
2018-05-17T10:27:31.790Z,99581.64
2018-05-17T10:29:59.359Z,99579.36
2018-05-17T10:32:26.963Z,99579.34
2018-05-17T10:34:54.518Z,99581.50
2018-05-17T10:37:22.089Z,99584.75
2018-05-17T10:39:49.708Z,99586.00
2018-05-17T10:42:17.365Z,99590.53
2018-05-17T10:44:44.895Z,99591.62
2018-05-17T10:47:12.501Z,99597.27
2018-05-17T10:49:40.053Z,99604.84
2018-05-17T10:52:07.608Z,99604.42
2018-05-17T10:54:35.252Z,99594.59
2018-05-17T10:57:02.816Z,99592.08
2018-05-17T10:59:30.377Z,99587.06
2018-05-17T11:01:57.967Z,99595.81
2018-05-17T11:04:25.532Z,99604.33
2018-05-17T11:06:53.098Z,99607.58
2018-05-17T11:09:20.703Z,99596.72
2018-05-17T11:11:48.268Z,99594.43
2018-05-17T11:14:15.852Z,99598.65
2018-05-17T11:16:43.459Z,99595.13
2018-05-17T11:19:11.020Z,99596.72
2018-05-17T11:21:38.594Z,99589.41
2018-05-17T11:24:06.223Z,99596.45
2018-05-17T11:26:33.785Z,99593.68
2018-05-17T11:29:01.363Z,99584.63
2018-05-17T11:31:28.977Z,99581.67
2018-05-17T11:33:56.555Z,99571.75
2018-05-17T11:36:24.109Z,99575.45
2018-05-17T11:38:51.694Z,99577.98
2018-05-17T11:41:19.310Z,99579.05
2018-05-17T11:43:46.876Z,99582.83
2018-05-17T11:46:14.475Z,99573.53
2018-05-17T11:48:42.050Z,99573.84
2018-05-17T11:51:09.637Z,99573.63
2018-05-17T11:53:37.249Z,99586.89
2018-05-17T11:56:04.826Z,99582.30
2018-05-17T11:58:32.401Z,99580.08
2018-05-17T12:01:00.000Z,99578.11
2018-05-17T12:03:27.558Z,99586.98
2018-05-17T12:05:55.120Z,99584.89
2018-05-17T12:08:22.724Z,99584.27
2018-05-17T12:10:50.292Z,99587.29
2018-05-17T12:13:17.988Z,99570.19
2018-05-17T12:15:45.621Z,99575.80
2018-05-17T12:18:13.184Z,99572.98
2018-05-17T12:20:40.766Z,99570.11
2018-05-17T12:23:08.415Z,99564.09
2018-05-17T12:25:36.028Z,99560.35
2018-05-17T12:28:03.600Z,99556.11
2018-05-17T12:30:31.303Z,99553.03
2018-05-17T12:32:58.848Z,99554.86
2018-05-17T12:35:26.421Z,99564.14
2018-05-17T12:37:54.015Z,99571.31
2018-05-17T12:40:21.602Z,99577.30
2018-05-17T12:42:49.302Z,99573.19
2018-05-17T12:45:16.880Z,99554.58
2018-05-17T12:47:44.440Z,99549.69
2018-05-17T12:50:12.015Z,99547.62
2018-05-17T12:52:39.612Z,99546.88
2018-05-17T12:55:07.191Z,99545.30
2018-05-17T12:57:34.764Z,99545.16
2018-05-17T13:00:02.368Z,99533.66
2018-05-17T13:02:30.575Z,99537.91
2018-05-17T13:04:58.207Z,99554.13
2018-05-17T13:07:25.799Z,99572.44
2018-05-17T13:09:53.392Z,99566.59
2018-05-17T13:12:20.966Z,99576.45
2018-05-17T13:14:48.567Z,99574.79
2018-05-17T13:17:16.123Z,99572.19
2018-05-17T13:19:43.693Z,99569.67
2018-05-17T13:22:11.322Z,99564.03
2018-05-17T13:24:38.923Z,99552.14
2018-05-17T13:27:06.509Z,99543.19
2018-05-17T13:29:34.294Z,99545.63
2018-05-17T13:32:01.878Z,99539.41
2018-05-17T13:34:29.475Z,99546.01
2018-05-17T13:36:57.139Z,99552.31
2018-05-17T13:39:24.724Z,99550.14
2018-05-17T13:41:52.292Z,99546.18
2018-05-17T13:44:19.908Z,99542.70
2018-05-17T13:46:47.486Z,99537.91
2018-05-17T13:49:15.081Z,99543.33
2018-05-17T13:51:42.692Z,99542.80
2018-05-17T13:54:10.326Z,99541.77
2018-05-17T13:56:37.888Z,99535.55
2018-05-17T13:59:06.286Z,99522.39
2018-05-17T14:01:34.115Z,99519.22
2018-05-17T14:04:01.701Z,99519.33
2018-05-17T14:06:29.311Z,99523.64
2018-05-17T14:08:56.883Z,99530.58
2018-05-17T14:11:24.462Z,99536.37
2018-05-17T14:13:52.114Z,99543.47
2018-05-17T14:16:19.671Z,99543.87
2018-05-17T14:18:47.244Z,99543.07
2018-05-17T14:21:14.866Z,99534.36
2018-05-17T14:23:42.446Z,99535.59
2018-05-17T14:26:10.025Z,99530.83
2018-05-17T14:28:37.621Z,99530.39
2018-05-17T14:31:05.197Z,99528.37
2018-05-17T14:33:32.769Z,99535.17
2018-05-17T14:36:00.376Z,99532.20
2018-05-17T14:38:27.948Z,99535.28
2018-05-17T14:40:55.526Z,99532.73
2018-05-17T14:43:23.120Z,99533.20
2018-05-17T14:45:50.697Z,99527.33
2018-05-17T14:48:18.291Z,99526.64
2018-05-17T14:50:45.896Z,99527.19
2018-05-17T14:53:13.509Z,99522.77
2018-05-17T14:55:41.078Z,99527.06
2018-05-17T14:58:08.667Z,99524.02
2018-05-17T15:00:36.276Z,99521.73
2018-05-17T15:03:03.853Z,99520.83
2018-05-17T15:05:31.567Z,99519.45
2018-05-17T15:07:59.172Z,99521.52
2018-05-17T15:10:26.727Z,99512.52
2018-05-17T15:12:54.539Z,99512.06
2018-05-17T15:15:22.156Z,99514.95
2018-05-17T15:17:49.733Z,99513.63
2018-05-17T15:20:17.312Z,99521.41
2018-05-17T15:22:44.938Z,99517.71
2018-05-17T15:25:13.350Z,99516.31
2018-05-17T15:27:40.927Z,99519.98
2018-05-17T15:30:08.564Z,99520.87
2018-05-17T15:32:36.129Z,99516.05
2018-05-17T15:35:03.689Z,99518.70
2018-05-17T15:37:31.313Z,99510.87
2018-05-17T15:39:58.890Z,99505.34
2018-05-17T15:42:26.467Z,99501.95
2018-05-17T15:44:54.055Z,99502.67
2018-05-17T15:47:21.642Z,99513.42
2018-05-17T15:49:49.204Z,99509.30
2018-05-17T15:52:17.179Z,99507.13
2018-05-17T15:54:44.760Z,99506.39
2018-05-17T15:57:12.447Z,99500.98
2018-05-17T15:59:40.063Z,99506.94
2018-05-17T16:02:07.628Z,99505.63
2018-05-17T16:04:35.200Z,99506.02
2018-05-17T16:07:02.805Z,99502.66
2018-05-17T16:09:30.412Z,99507.52
2018-05-17T16:11:57.987Z,99516.22
2018-05-17T16:14:25.597Z,99521.41
2018-05-17T16:16:53.170Z,99519.27
2018-05-17T16:19:20.731Z,99516.22
2018-05-17T16:21:48.364Z,99515.82
2018-05-17T16:24:15.979Z,99523.06
2018-05-17T16:26:43.569Z,99518.59
2018-05-17T16:29:11.245Z,99512.02
2018-05-17T16:31:38.837Z,99523.13
2018-05-17T16:34:06.471Z,99529.40
2018-05-17T16:36:34.084Z,99541.83
2018-05-17T16:39:01.698Z,99544.09
2018-05-17T16:41:29.373Z,99564.66
2018-05-17T16:43:57.053Z,99563.22
2018-05-17T16:46:24.623Z,99558.47
2018-05-17T16:48:53.267Z,99565.40
2018-05-17T16:51:20.868Z,99581.91
2018-05-17T16:53:48.446Z,99582.25
2018-05-17T16:56:16.055Z,99569.45
2018-05-17T16:58:43.718Z,99564.53
2018-05-17T17:01:11.336Z,99561.40
2018-05-17T17:03:38.908Z,99566.06
2018-05-17T17:06:06.560Z,99575.32
2018-05-17T17:08:34.127Z,99571.27
2018-05-17T17:11:01.692Z,99577.08
2018-05-17T17:13:29.363Z,99592.91
2018-05-17T17:15:57.024Z,99610.45
2018-05-17T17:18:24.606Z,99616.95
2018-05-17T17:20:52.295Z,99625.52
2018-05-17T17:23:19.823Z,99638.65
2018-05-17T17:25:47.410Z,99643.35
2018-05-17T17:28:15.082Z,99637.41
2018-05-17T17:30:42.693Z,99633.00
2018-05-17T17:33:10.281Z,99642.01
2018-05-17T17:35:37.878Z,99654.30
2018-05-17T17:38:05.436Z,99649.84
2018-05-17T17:40:38.531Z,99641.73
2018-05-17T17:43:06.121Z,99653.70
2018-05-17T17:45:33.727Z,99664.33
2018-05-17T17:48:01.356Z,99655.39
2018-05-17T17:50:28.923Z,99661.52
2018-05-17T17:52:56.495Z,99665.73
2018-05-17T17:55:24.106Z,99677.12
2018-05-17T17:57:51.676Z,99682.30
2018-05-17T18:00:19.252Z,99680.67
2018-05-17T18:02:46.864Z,99694.20
2018-05-17T18:05:14.549Z,99690.27
2018-05-17T18:07:42.119Z,99688.69
2018-05-17T18:10:09.755Z,99686.88
2018-05-17T18:12:37.338Z,99693.78
2018-05-17T18:15:04.935Z,99693.92
2018-05-17T18:17:33.464Z,99697.86
2018-05-17T18:20:01.024Z,99705.45
2018-05-17T18:22:28.612Z,99714.67
2018-05-17T18:24:56.259Z,99708.95
2018-05-17T18:27:23.806Z,99709.08
2018-05-17T18:29:51.395Z,99719.92
2018-05-17T18:32:19.023Z,99732.78
2018-05-17T18:34:46.596Z,99732.11
2018-05-17T18:37:14.183Z,99726.69
2018-05-17T18:39:41.856Z,99726.41
2018-05-17T18:42:09.433Z,99735.53
2018-05-17T18:44:37.024Z,99731.06
2018-05-17T18:47:04.664Z,99738.39
2018-05-17T18:49:32.246Z,99751.80
2018-05-17T18:51:59.840Z,99768.19
2018-05-17T18:54:27.594Z,99770.61
2018-05-17T18:56:55.187Z,99773.53
2018-05-17T18:59:22.793Z,99775.83
2018-05-17T19:01:50.489Z,99776.81
2018-05-17T19:04:18.031Z,99782.53
2018-05-17T19:06:45.616Z,99783.05
2018-05-17T19:09:13.220Z,99793.32
2018-05-17T19:11:40.815Z,99795.59
2018-05-17T19:14:08.537Z,99796.51
2018-05-17T19:16:36.128Z,99785.97
2018-05-17T19:19:03.711Z,99789.55
2018-05-17T19:21:31.295Z,99798.64
2018-05-17T19:23:58.929Z,99798.50
2018-05-17T19:26:26.518Z,99802.80
2018-05-17T19:28:54.110Z,99803.64
2018-05-17T19:31:21.864Z,99799.48
2018-05-17T19:33:49.461Z,99803.14
2018-05-17T19:36:17.075Z,99797.62
2018-05-17T19:38:44.696Z,99802.97
2018-05-17T19:41:12.281Z,99806.87
2018-05-17T19:43:39.856Z,99811.98
2018-05-17T19:46:07.454Z,99815.46
2018-05-17T19:48:35.038Z,99825.98
2018-05-17T19:51:02.646Z,99831.36
2018-05-17T19:53:30.353Z,99833.30
2018-05-17T19:55:57.951Z,99838.64
2018-05-17T19:58:25.527Z,99839.80
2018-05-17T20:00:53.249Z,99840.02
2018-05-17T20:03:20.828Z,99840.20
2018-05-17T20:05:48.420Z,99833.90
2018-05-17T20:08:16.040Z,99830.52
2018-05-17T20:10:43.648Z,99829.14
2018-05-17T20:13:11.227Z,99828.25
2018-05-17T20:15:38.878Z,99816.77
2018-05-17T20:18:06.460Z,99819.88
2018-05-17T20:20:34.042Z,99819.47
2018-05-17T20:23:01.663Z,99819.84
2018-05-17T20:25:29.235Z,99827.09
2018-05-17T20:27:56.816Z,99829.58
2018-05-17T20:30:24.452Z,99829.20
2018-05-17T20:32:52.032Z,99835.35
2018-05-17T20:35:19.833Z,99840.16
2018-05-17T20:37:47.487Z,99838.22
2018-05-17T20:40:15.069Z,99834.00
2018-05-17T20:42:42.649Z,99833.95
2018-05-17T20:45:10.260Z,99840.05
2018-05-17T20:47:37.847Z,99839.75
2018-05-17T20:50:05.445Z,99844.89
2018-05-17T20:52:33.054Z,99843.08
2018-05-17T20:55:00.656Z,99847.00
2018-05-17T20:57:28.246Z,99845.44
2018-05-17T20:59:55.876Z,99843.89
2018-05-17T21:02:23.454Z,99842.98
2018-05-17T21:04:51.061Z,99843.97
2018-05-17T21:07:18.769Z,99842.83
2018-05-17T21:09:46.360Z,99840.52
2018-05-17T21:12:13.948Z,99835.23
2018-05-17T21:14:41.576Z,99840.34
2018-05-17T21:17:09.178Z,99835.94
2018-05-17T21:19:36.768Z,99838.70
2018-05-17T21:22:04.382Z,99834.09
2018-05-17T21:24:31.981Z,99833.75
2018-05-17T21:26:59.566Z,99830.51
2018-05-17T21:29:27.200Z,99828.77
2018-05-17T21:31:54.792Z,99832.38
2018-05-17T21:34:22.392Z,99833.86
2018-05-17T21:36:50.024Z,99833.91
2018-05-17T21:39:17.614Z,99831.73
2018-05-17T21:41:45.209Z,99834.59
2018-05-17T21:44:12.854Z,99837.28
2018-05-17T21:46:40.451Z,99835.61
2018-05-17T21:49:08.051Z,99830.64
2018-05-17T21:51:35.732Z,99833.06
2018-05-17T21:54:03.347Z,99833.05
2018-05-17T21:56:30.936Z,99825.24
2018-05-17T21:58:58.563Z,99819.94
2018-05-17T22:01:26.231Z,99820.30
2018-05-17T22:03:53.829Z,99823.16
2018-05-17T22:06:21.448Z,99825.83
2018-05-17T22:08:49.031Z,99827.92
2018-05-17T22:11:16.756Z,99831.49
2018-05-17T22:13:44.375Z,99836.88
2018-05-17T22:16:11.975Z,99835.47
2018-05-17T22:18:39.552Z,99835.06
2018-05-17T22:21:07.194Z,99827.41
2018-05-17T22:23:34.789Z,99821.83
2018-05-17T22:26:02.378Z,99825.50
2018-05-17T22:28:30.015Z,99825.22
2018-05-17T22:30:57.602Z,99825.55
2018-05-17T22:33:25.185Z,99824.88
2018-05-17T22:35:52.959Z,99823.70
2018-05-17T22:38:20.495Z,99822.20
2018-05-17T22:40:48.075Z,99827.89
2018-05-17T22:43:15.780Z,99828.02
2018-05-17T22:45:43.378Z,99824.09
2018-05-17T22:48:11.001Z,99823.95
2018-05-17T22:50:38.631Z,99822.59
2018-05-17T22:53:06.210Z,99823.70
2018-05-17T22:55:33.799Z,99818.28
2018-05-17T22:58:13.172Z,99825.48
2018-05-17T23:00:40.754Z,99812.27
2018-05-17T23:03:08.349Z,99816.75
2018-05-17T23:05:35.996Z,99819.41
2018-05-17T23:08:03.585Z,99817.00
2018-05-17T23:10:31.180Z,99819.02
2018-05-17T23:12:58.806Z,99817.95
2018-05-17T23:15:26.389Z,99814.72
2018-05-17T23:17:53.981Z,99814.88
2018-05-17T23:20:21.644Z,99810.64
2018-05-17T23:22:49.222Z,99815.47
2018-05-17T23:25:16.861Z,99809.13
2018-05-17T23:27:44.523Z,99808.20
2018-05-17T23:30:12.115Z,99815.33
2018-05-17T23:32:39.707Z,99807.00
2018-05-17T23:35:07.601Z,99808.28
2018-05-17T23:37:35.194Z,99802.84
2018-05-17T23:40:14.700Z,99798.15
2018-05-17T23:42:42.297Z,99803.40
2018-05-17T23:45:09.886Z,99808.19
2018-05-17T23:47:37.524Z,99810.34
2018-05-17T23:50:05.111Z,99807.11
2018-05-17T23:52:32.702Z,99806.75
2018-05-17T23:55:00.341Z,99808.59
2018-05-17T23:57:27.942Z,99802.38
2018-05-17T23:59:55.573Z,99799.62
